sensor_id;sensor_type;location;lat;lon;timestamp;temperature;humidity
11961;DHT22;6040;49.358;11.140;2022-12-07T00:01:56;2.50;99.90
11961;DHT22;6040;49.358;11.140;2022-12-07T00:04:23;2.50;99.90
11961;DHT22;6040;49.358;11.140;2022-12-07T00:06:51;2.50;99.90
11961;DHT22;6040;49.358;11.140;2022-12-07T00:09:18;2.50;99.90
11961;DHT22;6040;49.358;11.140;2022-12-07T00:11:50;2.50;99.90
11961;DHT22;6040;49.358;11.140;2022-12-07T00:14:18;2.40;99.90
11961;DHT22;6040;49.358;11.140;2022-12-07T00:16:45;2.40;99.90
11961;DHT22;6040;49.358;11.140;2022-12-07T00:19:13;2.40;99.90
11961;DHT22;6040;49.358;11.140;2022-12-07T00:21:40;2.40;99.90
11961;DHT22;6040;49.358;11.140;2022-12-07T00:24:07;2.40;99.90
11961;DHT22;6040;49.358;11.140;2022-12-07T00:26:37;3.80;99.90
11961;DHT22;6040;49.358;11.140;2022-12-07T00:29:07;2.40;99.90
11961;DHT22;6040;49.358;11.140;2022-12-07T00:31:36;2.40;99.90
11961;DHT22;6040;49.358;11.140;2022-12-07T00:34:04;2.40;99.90
11961;DHT22;6040;49.358;11.140;2022-12-07T00:36:31;2.40;99.90
11961;DHT22;6040;49.358;11.140;2022-12-07T00:39:12;2.40;99.90
11961;DHT22;6040;49.358;11.140;2022-12-07T00:41:39;2.30;99.90
11961;DHT22;6040;49.358;11.140;2022-12-07T00:44:07;2.30;99.90
11961;DHT22;6040;49.358;11.140;2022-12-07T00:46:34;2.30;99.90
11961;DHT22;6040;49.358;11.140;2022-12-07T00:49:00;2.30;99.90
11961;DHT22;6040;49.358;11.140;2022-12-07T00:51:27;2.30;99.90
11961;DHT22;6040;49.358;11.140;2022-12-07T00:53:54;2.30;99.90
11961;DHT22;6040;49.358;11.140;2022-12-07T00:56:28;2.30;99.90
11961;DHT22;6040;49.358;11.140;2022-12-07T00:58:57;2.30;99.90
11961;DHT22;6040;49.358;11.140;2022-12-07T01:01:27;2.30;99.90
11961;DHT22;6040;49.358;11.140;2022-12-07T01:03:54;2.40;99.90
11961;DHT22;6040;49.358;11.140;2022-12-07T01:06:22;2.30;99.90
11961;DHT22;6040;49.358;11.140;2022-12-07T01:08:49;2.30;99.90
11961;DHT22;6040;49.358;11.140;2022-12-07T01:11:19;2.30;99.90
11961;DHT22;6040;49.358;11.140;2022-12-07T01:13:46;2.30;99.90
11961;DHT22;6040;49.358;11.140;2022-12-07T01:16:15;2.30;99.90
11961;DHT22;6040;49.358;11.140;2022-12-07T01:18:46;2.30;99.90
11961;DHT22;6040;49.358;11.140;2022-12-07T01:21:15;2.30;99.90
11961;DHT22;6040;49.358;11.140;2022-12-07T01:23:42;2.80;99.90
11961;DHT22;6040;49.358;11.140;2022-12-07T01:26:11;2.30;99.90
11961;DHT22;6040;49.358;11.140;2022-12-07T01:28:38;2.30;99.90
11961;DHT22;6040;49.358;11.140;2022-12-07T01:31:06;3.20;99.90
11961;DHT22;6040;49.358;11.140;2022-12-07T01:33:36;2.30;99.90
11961;DHT22;6040;49.358;11.140;2022-12-07T01:36:05;2.30;99.90
11961;DHT22;6040;49.358;11.140;2022-12-07T01:38:33;2.30;99.90
11961;DHT22;6040;49.358;11.140;2022-12-07T01:41:01;2.20;99.90
11961;DHT22;6040;49.358;11.140;2022-12-07T01:43:30;2.20;99.90
11961;DHT22;6040;49.358;11.140;2022-12-07T01:45:57;2.20;99.90
11961;DHT22;6040;49.358;11.140;2022-12-07T01:48:27;2.20;99.90
11961;DHT22;6040;49.358;11.140;2022-12-07T01:50:56;2.20;99.90
11961;DHT22;6040;49.358;11.140;2022-12-07T01:53:29;2.20;99.90
11961;DHT22;6040;49.358;11.140;2022-12-07T01:56:04;2.20;99.90
11961;DHT22;6040;49.358;11.140;2022-12-07T01:58:39;2.30;99.90
11961;DHT22;6040;49.358;11.140;2022-12-07T02:01:06;2.30;99.90
11961;DHT22;6040;49.358;11.140;2022-12-07T02:03:36;2.20;99.90
11961;DHT22;6040;49.358;11.140;2022-12-07T02:06:05;2.20;99.90
11961;DHT22;6040;49.358;11.140;2022-12-07T02:08:34;2.20;99.90
11961;DHT22;6040;49.358;11.140;2022-12-07T02:11:01;2.20;99.90
11961;DHT22;6040;49.358;11.140;2022-12-07T02:13:30;2.20;99.90
11961;DHT22;6040;49.358;11.140;2022-12-07T02:16:13;2.20;99.90
11961;DHT22;6040;49.358;11.140;2022-12-07T02:18:56;2.20;99.90
11961;DHT22;6040;49.358;11.140;2022-12-07T02:21:33;2.20;99.90
11961;DHT22;6040;49.358;11.140;2022-12-07T02:24:14;2.20;99.90
11961;DHT22;6040;49.358;11.140;2022-12-07T02:29:58;2.20;99.90
11961;DHT22;6040;49.358;11.140;2022-12-07T02:32:31;2.20;99.90
11961;DHT22;6040;49.358;11.140;2022-12-07T02:35:11;2.20;99.90
11961;DHT22;6040;49.358;11.140;2022-12-07T02:37:58;2.20;99.90
11961;DHT22;6040;49.358;11.140;2022-12-07T02:40:33;2.20;99.90
11961;DHT22;6040;49.358;11.140;2022-12-07T02:43:04;2.10;99.90
11961;DHT22;6040;49.358;11.140;2022-12-07T02:45:35;2.10;99.90
11961;DHT22;6040;49.358;11.140;2022-12-07T02:48:04;2.10;99.90
11961;DHT22;6040;49.358;11.140;2022-12-07T02:50:32;2.10;99.90
11961;DHT22;6040;49.358;11.140;2022-12-07T02:52:59;2.20;99.90
11961;DHT22;6040;49.358;11.140;2022-12-07T02:55:30;2.10;99.90
11961;DHT22;6040;49.358;11.140;2022-12-07T02:58:12;2.10;99.90
11961;DHT22;6040;49.358;11.140;2022-12-07T03:00:54;2.10;99.90
11961;DHT22;6040;49.358;11.140;2022-12-07T03:03:40;2.10;99.90
11961;DHT22;6040;49.358;11.140;2022-12-07T03:06:17;2.10;99.90
11961;DHT22;6040;49.358;11.140;2022-12-07T03:08:53;2.10;99.90
11961;DHT22;6040;49.358;11.140;2022-12-07T03:11:27;2.10;99.90
11961;DHT22;6040;49.358;11.140;2022-12-07T03:14:00;2.10;99.90
11961;DHT22;6040;49.358;11.140;2022-12-07T03:16:35;2.10;99.90
11961;DHT22;6040;49.358;11.140;2022-12-07T03:19:07;2.10;99.90
11961;DHT22;6040;49.358;11.140;2022-12-07T03:21:39;2.10;99.90
11961;DHT22;6040;49.358;11.140;2022-12-07T03:24:10;2.10;99.90
11961;DHT22;6040;49.358;11.140;2022-12-07T03:26:41;2.00;99.90
11961;DHT22;6040;49.358;11.140;2022-12-07T03:29:19;2.00;99.90
11961;DHT22;6040;49.358;11.140;2022-12-07T03:31:52;2.00;99.90
11961;DHT22;6040;49.358;11.140;2022-12-07T03:34:27;1.90;99.90
11961;DHT22;6040;49.358;11.140;2022-12-07T03:37:04;1.80;99.90
11961;DHT22;6040;49.358;11.140;2022-12-07T03:39:38;1.70;99.90
11961;DHT22;6040;49.358;11.140;2022-12-07T03:42:10;1.70;99.90
11961;DHT22;6040;49.358;11.140;2022-12-07T03:44:38;1.60;99.90
11961;DHT22;6040;49.358;11.140;2022-12-07T03:47:12;1.60;99.90
11961;DHT22;6040;49.358;11.140;2022-12-07T03:49:43;1.60;99.90
11961;DHT22;6040;49.358;11.140;2022-12-07T03:52:18;1.60;99.90
11961;DHT22;6040;49.358;11.140;2022-12-07T03:54:52;1.60;99.90
11961;DHT22;6040;49.358;11.140;2022-12-07T03:57:21;1.50;99.90
11961;DHT22;6040;49.358;11.140;2022-12-07T03:59:49;1.50;99.90
11961;DHT22;6040;49.358;11.140;2022-12-07T04:02:19;1.50;99.90
11961;DHT22;6040;49.358;11.140;2022-12-07T04:04:46;1.50;99.90
11961;DHT22;6040;49.358;11.140;2022-12-07T04:07:13;1.50;99.90
11961;DHT22;6040;49.358;11.140;2022-12-07T04:09:40;1.50;99.90
11961;DHT22;6040;49.358;11.140;2022-12-07T04:12:07;1.40;99.90
11961;DHT22;6040;49.358;11.140;2022-12-07T04:14:34;1.40;99.90
11961;DHT22;6040;49.358;11.140;2022-12-07T04:17:00;1.30;99.90
11961;DHT22;6040;49.358;11.140;2022-12-07T04:19:30;1.20;99.90
11961;DHT22;6040;49.358;11.140;2022-12-07T04:21:58;1.20;99.90
11961;DHT22;6040;49.358;11.140;2022-12-07T04:24:26;1.10;99.90
11961;DHT22;6040;49.358;11.140;2022-12-07T04:26:53;1.40;99.90
11961;DHT22;6040;49.358;11.140;2022-12-07T04:29:21;0.40;99.90
11961;DHT22;6040;49.358;11.140;2022-12-07T04:31:48;0.90;99.90
11961;DHT22;6040;49.358;11.140;2022-12-07T04:34:15;0.90;99.90
11961;DHT22;6040;49.358;11.140;2022-12-07T04:36:44;0.80;99.90
11961;DHT22;6040;49.358;11.140;2022-12-07T04:39:18;0.80;99.90
11961;DHT22;6040;49.358;11.140;2022-12-07T04:41:45;0.70;99.90
11961;DHT22;6040;49.358;11.140;2022-12-07T04:44:13;0.70;99.90
11961;DHT22;6040;49.358;11.140;2022-12-07T04:46:40;0.60;99.90
11961;DHT22;6040;49.358;11.140;2022-12-07T04:49:07;0.60;99.90
11961;DHT22;6040;49.358;11.140;2022-12-07T04:51:34;0.60;99.90
11961;DHT22;6040;49.358;11.140;2022-12-07T04:54:03;0.50;99.90
11961;DHT22;6040;49.358;11.140;2022-12-07T04:56:30;0.50;99.90
11961;DHT22;6040;49.358;11.140;2022-12-07T04:58:57;0.50;99.90
11961;DHT22;6040;49.358;11.140;2022-12-07T05:01:24;0.50;99.90
11961;DHT22;6040;49.358;11.140;2022-12-07T05:03:51;0.50;99.90
11961;DHT22;6040;49.358;11.140;2022-12-07T05:06:18;0.50;99.90
11961;DHT22;6040;49.358;11.140;2022-12-07T05:08:45;0.50;99.90
11961;DHT22;6040;49.358;11.140;2022-12-07T05:11:13;0.50;99.90
11961;DHT22;6040;49.358;11.140;2022-12-07T05:14:00;0.50;99.90
11961;DHT22;6040;49.358;11.140;2022-12-07T05:16:28;0.50;99.90
11961;DHT22;6040;49.358;11.140;2022-12-07T05:18:54;0.50;99.90
11961;DHT22;6040;49.358;11.140;2022-12-07T05:21:21;0.50;99.90
11961;DHT22;6040;49.358;11.140;2022-12-07T05:23:48;0.50;99.90
11961;DHT22;6040;49.358;11.140;2022-12-07T05:26:17;0.50;99.90
11961;DHT22;6040;49.358;11.140;2022-12-07T05:28:44;0.50;99.90
11961;DHT22;6040;49.358;11.140;2022-12-07T05:31:10;0.50;99.90
11961;DHT22;6040;49.358;11.140;2022-12-07T05:33:56;0.60;99.90
11961;DHT22;6040;49.358;11.140;2022-12-07T05:36:22;0.60;99.90
11961;DHT22;6040;49.358;11.140;2022-12-07T05:38:49;0.60;99.90
11961;DHT22;6040;49.358;11.140;2022-12-07T05:41:18;0.60;99.90
11961;DHT22;6040;49.358;11.140;2022-12-07T05:44:03;0.60;99.90
11961;DHT22;6040;49.358;11.140;2022-12-07T05:46:30;0.70;99.90
11961;DHT22;6040;49.358;11.140;2022-12-07T05:48:57;0.70;99.90
11961;DHT22;6040;49.358;11.140;2022-12-07T05:51:24;0.70;99.90
11961;DHT22;6040;49.358;11.140;2022-12-07T05:53:51;0.70;99.90
11961;DHT22;6040;49.358;11.140;2022-12-07T05:56:19;0.70;99.90
11961;DHT22;6040;49.358;11.140;2022-12-07T05:58:46;0.70;99.90
11961;DHT22;6040;49.358;11.140;2022-12-07T06:01:36;0.80;99.90
11961;DHT22;6040;49.358;11.140;2022-12-07T06:04:03;0.80;99.90
11961;DHT22;6040;49.358;11.140;2022-12-07T06:06:30;0.80;99.90
11961;DHT22;6040;49.358;11.140;2022-12-07T06:08:57;0.80;99.90
11961;DHT22;6040;49.358;11.140;2022-12-07T06:11:25;0.80;99.90
11961;DHT22;6040;49.358;11.140;2022-12-07T06:14:09;0.80;99.90
11961;DHT22;6040;49.358;11.140;2022-12-07T06:16:37;0.90;99.90
11961;DHT22;6040;49.358;11.140;2022-12-07T06:19:03;0.80;99.90
11961;DHT22;6040;49.358;11.140;2022-12-07T06:21:30;0.90;99.90
11961;DHT22;6040;49.358;11.140;2022-12-07T06:23:57;0.90;99.90
11961;DHT22;6040;49.358;11.140;2022-12-07T06:26:25;0.90;99.90
11961;DHT22;6040;49.358;11.140;2022-12-07T06:28:52;0.90;99.90
11961;DHT22;6040;49.358;11.140;2022-12-07T06:31:19;0.90;99.90
11961;DHT22;6040;49.358;11.140;2022-12-07T06:33:46;1.00;99.90
11961;DHT22;6040;49.358;11.140;2022-12-07T06:36:12;1.00;99.90
11961;DHT22;6040;49.358;11.140;2022-12-07T06:38:39;1.00;99.90
11961;DHT22;6040;49.358;11.140;2022-12-07T06:41:06;0.90;99.90
11961;DHT22;6040;49.358;11.140;2022-12-07T06:43:34;1.00;99.90
11961;DHT22;6040;49.358;11.140;2022-12-07T06:46:03;0.90;99.90
11961;DHT22;6040;49.358;11.140;2022-12-07T06:48:30;1.00;99.90
11961;DHT22;6040;49.358;11.140;2022-12-07T06:50:57;1.00;99.90
11961;DHT22;6040;49.358;11.140;2022-12-07T06:53:23;1.00;99.90
11961;DHT22;6040;49.358;11.140;2022-12-07T06:55:50;1.00;99.90
11961;DHT22;6040;49.358;11.140;2022-12-07T06:58:17;1.00;99.90
11961;DHT22;6040;49.358;11.140;2022-12-07T07:00:47;1.00;99.90
11961;DHT22;6040;49.358;11.140;2022-12-07T07:03:14;1.00;99.90
11961;DHT22;6040;49.358;11.140;2022-12-07T07:05:41;1.00;99.90
11961;DHT22;6040;49.358;11.140;2022-12-07T07:08:08;1.00;99.90
11961;DHT22;6040;49.358;11.140;2022-12-07T07:10:35;1.00;99.90
11961;DHT22;6040;49.358;11.140;2022-12-07T07:13:02;1.00;99.90
11961;DHT22;6040;49.358;11.140;2022-12-07T07:15:29;1.10;99.90
11961;DHT22;6040;49.358;11.140;2022-12-07T07:17:58;1.00;99.90
11961;DHT22;6040;49.358;11.140;2022-12-07T07:20:28;1.10;99.90
11961;DHT22;6040;49.358;11.140;2022-12-07T07:23:05;1.10;99.90
11961;DHT22;6040;49.358;11.140;2022-12-07T07:25:32;1.10;99.90
11961;DHT22;6040;49.358;11.140;2022-12-07T07:27:59;1.10;99.90
11961;DHT22;6040;49.358;11.140;2022-12-07T07:30:27;1.20;99.90
11961;DHT22;6040;49.358;11.140;2022-12-07T07:32:57;1.20;99.90
11961;DHT22;6040;49.358;11.140;2022-12-07T07:35:24;1.20;99.90
11961;DHT22;6040;49.358;11.140;2022-12-07T07:37:51;1.20;99.90
11961;DHT22;6040;49.358;11.140;2022-12-07T07:40:18;1.20;99.90
11961;DHT22;6040;49.358;11.140;2022-12-07T07:42:47;1.20;99.90
11961;DHT22;6040;49.358;11.140;2022-12-07T07:45:14;1.20;99.90
11961;DHT22;6040;49.358;11.140;2022-12-07T07:47:41;1.30;99.90
11961;DHT22;6040;49.358;11.140;2022-12-07T07:50:10;1.20;99.90
11961;DHT22;6040;49.358;11.140;2022-12-07T07:52:37;1.30;99.90
11961;DHT22;6040;49.358;11.140;2022-12-07T07:55:05;1.30;99.90
11961;DHT22;6040;49.358;11.140;2022-12-07T07:57:34;1.30;99.90
11961;DHT22;6040;49.358;11.140;2022-12-07T08:00:01;1.30;99.90
11961;DHT22;6040;49.358;11.140;2022-12-07T08:02:33;1.40;99.90
11961;DHT22;6040;49.358;11.140;2022-12-07T08:05:00;1.40;99.90
11961;DHT22;6040;49.358;11.140;2022-12-07T08:07:28;1.40;99.90
11961;DHT22;6040;49.358;11.140;2022-12-07T08:09:55;1.40;99.90
11961;DHT22;6040;49.358;11.140;2022-12-07T08:12:22;1.50;99.90
11961;DHT22;6040;49.358;11.140;2022-12-07T08:14:52;1.50;99.90
11961;DHT22;6040;49.358;11.140;2022-12-07T08:17:18;1.60;99.90
11961;DHT22;6040;49.358;11.140;2022-12-07T08:19:45;1.60;99.90
11961;DHT22;6040;49.358;11.140;2022-12-07T08:22:12;1.60;99.90
11961;DHT22;6040;49.358;11.140;2022-12-07T08:24:40;1.70;99.90
11961;DHT22;6040;49.358;11.140;2022-12-07T08:27:07;1.70;99.90
11961;DHT22;6040;49.358;11.140;2022-12-07T08:29:34;1.80;99.90
11961;DHT22;6040;49.358;11.140;2022-12-07T08:32:01;1.80;99.90
11961;DHT22;6040;49.358;11.140;2022-12-07T08:34:27;1.90;99.90
11961;DHT22;6040;49.358;11.140;2022-12-07T08:36:54;1.90;99.90
11961;DHT22;6040;49.358;11.140;2022-12-07T08:39:21;2.00;99.90
11961;DHT22;6040;49.358;11.140;2022-12-07T08:41:49;2.00;99.90
11961;DHT22;6040;49.358;11.140;2022-12-07T08:44:16;2.10;99.90
11961;DHT22;6040;49.358;11.140;2022-12-07T08:46:46;2.80;99.90
11961;DHT22;6040;49.358;11.140;2022-12-07T08:49:17;2.20;99.90
11961;DHT22;6040;49.358;11.140;2022-12-07T08:51:45;2.20;99.90
11961;DHT22;6040;49.358;11.140;2022-12-07T08:54:15;2.20;99.90
11961;DHT22;6040;49.358;11.140;2022-12-07T08:56:44;2.30;99.90
11961;DHT22;6040;49.358;11.140;2022-12-07T08:59:14;2.30;99.90
11961;DHT22;6040;49.358;11.140;2022-12-07T09:01:42;2.40;99.90
11961;DHT22;6040;49.358;11.140;2022-12-07T09:04:09;2.40;99.90
11961;DHT22;6040;49.358;11.140;2022-12-07T09:06:36;2.50;99.90
11961;DHT22;6040;49.358;11.140;2022-12-07T09:09:04;2.50;99.90
11961;DHT22;6040;49.358;11.140;2022-12-07T09:11:31;2.60;99.90
11961;DHT22;6040;49.358;11.140;2022-12-07T09:13:58;2.60;99.90
11961;DHT22;6040;49.358;11.140;2022-12-07T09:16:26;4.20;99.90
11961;DHT22;6040;49.358;11.140;2022-12-07T09:18:54;2.70;99.90
11961;DHT22;6040;49.358;11.140;2022-12-07T09:21:20;2.70;99.90
11961;DHT22;6040;49.358;11.140;2022-12-07T09:23:47;2.70;99.90
11961;DHT22;6040;49.358;11.140;2022-12-07T09:26:14;2.80;99.90
11961;DHT22;6040;49.358;11.140;2022-12-07T09:28:41;2.80;99.90
11961;DHT22;6040;49.358;11.140;2022-12-07T09:31:08;2.80;99.90
11961;DHT22;6040;49.358;11.140;2022-12-07T09:33:37;2.80;99.90
11961;DHT22;6040;49.358;11.140;2022-12-07T09:36:04;2.80;99.90
11961;DHT22;6040;49.358;11.140;2022-12-07T09:38:31;2.80;99.90
11961;DHT22;6040;49.358;11.140;2022-12-07T09:41:04;2.80;99.90
11961;DHT22;6040;49.358;11.140;2022-12-07T09:43:31;2.80;99.90
11961;DHT22;6040;49.358;11.140;2022-12-07T09:45:58;2.80;99.90
11961;DHT22;6040;49.358;11.140;2022-12-07T09:48:30;2.80;99.90
11961;DHT22;6040;49.358;11.140;2022-12-07T09:51:00;2.90;99.90
11961;DHT22;6040;49.358;11.140;2022-12-07T09:53:33;2.80;99.90
11961;DHT22;6040;49.358;11.140;2022-12-07T09:56:01;2.80;99.90
11961;DHT22;6040;49.358;11.140;2022-12-07T09:58:29;2.80;99.90
11961;DHT22;6040;49.358;11.140;2022-12-07T10:01:00;2.80;99.90
11961;DHT22;6040;49.358;11.140;2022-12-07T10:03:27;2.80;99.90
11961;DHT22;6040;49.358;11.140;2022-12-07T10:05:55;2.80;99.90
11961;DHT22;6040;49.358;11.140;2022-12-07T10:08:25;2.80;99.90
11961;DHT22;6040;49.358;11.140;2022-12-07T10:10:53;2.80;99.90
11961;DHT22;6040;49.358;11.140;2022-12-07T10:13:22;2.80;99.90
11961;DHT22;6040;49.358;11.140;2022-12-07T10:15:51;2.80;99.90
11961;DHT22;6040;49.358;11.140;2022-12-07T10:18:27;2.90;99.90
11961;DHT22;6040;49.358;11.140;2022-12-07T10:21:03;2.90;99.90
11961;DHT22;6040;49.358;11.140;2022-12-07T10:23:31;2.90;99.90
11961;DHT22;6040;49.358;11.140;2022-12-07T10:25:58;2.90;99.90
11961;DHT22;6040;49.358;11.140;2022-12-07T10:28:34;2.90;99.90
11961;DHT22;6040;49.358;11.140;2022-12-07T10:31:15;2.90;99.90
11961;DHT22;6040;49.358;11.140;2022-12-07T10:33:49;2.90;99.90
11961;DHT22;6040;49.358;11.140;2022-12-07T10:36:19;2.90;99.90
11961;DHT22;6040;49.358;11.140;2022-12-07T10:38:51;2.90;99.90
11961;DHT22;6040;49.358;11.140;2022-12-07T10:41:18;2.90;99.90
11961;DHT22;6040;49.358;11.140;2022-12-07T10:43:51;2.90;99.90
11961;DHT22;6040;49.358;11.140;2022-12-07T10:46:45;3.00;99.90
11961;DHT22;6040;49.358;11.140;2022-12-07T10:49:53;3.00;99.90
11961;DHT22;6040;49.358;11.140;2022-12-07T10:52:42;3.00;99.90
11961;DHT22;6040;49.358;11.140;2022-12-07T10:55:21;3.00;99.90
11961;DHT22;6040;49.358;11.140;2022-12-07T10:58:07;3.00;99.90
11961;DHT22;6040;49.358;11.140;2022-12-07T11:00:44;3.10;99.90
11961;DHT22;6040;49.358;11.140;2022-12-07T11:03:39;3.10;99.90
11961;DHT22;6040;49.358;11.140;2022-12-07T11:06:16;3.10;99.90
11961;DHT22;6040;49.358;11.140;2022-12-07T11:09:00;3.10;99.90
11961;DHT22;6040;49.358;11.140;2022-12-07T11:11:34;3.00;99.90
11961;DHT22;6040;49.358;11.140;2022-12-07T11:14:09;3.10;99.90
11961;DHT22;6040;49.358;11.140;2022-12-07T11:16:51;3.10;99.90
11961;DHT22;6040;49.358;11.140;2022-12-07T11:19:34;3.10;99.90
11961;DHT22;6040;49.358;11.140;2022-12-07T11:22:06;3.10;99.90
11961;DHT22;6040;49.358;11.140;2022-12-07T11:24:44;3.20;99.90
11961;DHT22;6040;49.358;11.140;2022-12-07T11:27:23;3.20;99.90
11961;DHT22;6040;49.358;11.140;2022-12-07T11:30:07;3.20;99.90
11961;DHT22;6040;49.358;11.140;2022-12-07T11:33:00;3.20;99.90
11961;DHT22;6040;49.358;11.140;2022-12-07T11:35:38;3.20;99.90
11961;DHT22;6040;49.358;11.140;2022-12-07T11:38:12;3.30;99.90
11961;DHT22;6040;49.358;11.140;2022-12-07T11:40:43;3.30;99.90
11961;DHT22;6040;49.358;11.140;2022-12-07T11:43:20;3.30;99.90
11961;DHT22;6040;49.358;11.140;2022-12-07T11:45:52;3.40;99.90
11961;DHT22;6040;49.358;11.140;2022-12-07T11:48:30;3.40;99.90
11961;DHT22;6040;49.358;11.140;2022-12-07T11:51:00;3.40;99.90
11961;DHT22;6040;49.358;11.140;2022-12-07T11:53:35;3.50;99.90
11961;DHT22;6040;49.358;11.140;2022-12-07T11:56:17;3.60;99.90
11961;DHT22;6040;49.358;11.140;2022-12-07T11:58:49;3.60;99.90
11961;DHT22;6040;49.358;11.140;2022-12-07T12:01:35;3.60;99.90
11961;DHT22;6040;49.358;11.140;2022-12-07T12:04:13;3.70;99.90
11961;DHT22;6040;49.358;11.140;2022-12-07T12:06:44;3.80;99.90
11961;DHT22;6040;49.358;11.140;2022-12-07T12:09:16;3.90;99.90
11961;DHT22;6040;49.358;11.140;2022-12-07T12:12:01;3.90;99.90
11961;DHT22;6040;49.358;11.140;2022-12-07T12:14:45;3.90;99.90
11961;DHT22;6040;49.358;11.140;2022-12-07T12:17:28;3.90;99.90
11961;DHT22;6040;49.358;11.140;2022-12-07T12:20:03;3.80;99.90
11961;DHT22;6040;49.358;11.140;2022-12-07T12:22:35;4.50;99.90
11961;DHT22;6040;49.358;11.140;2022-12-07T12:25:06;3.80;99.90
11961;DHT22;6040;49.358;11.140;2022-12-07T12:27:35;3.80;99.90
11961;DHT22;6040;49.358;11.140;2022-12-07T12:30:07;3.80;99.90
11961;DHT22;6040;49.358;11.140;2022-12-07T12:32:39;3.90;99.90
11961;DHT22;6040;49.358;11.140;2022-12-07T12:35:29;3.90;99.90
11961;DHT22;6040;49.358;11.140;2022-12-07T12:38:29;3.90;99.90
11961;DHT22;6040;49.358;11.140;2022-12-07T12:40:57;3.90;99.90
11961;DHT22;6040;49.358;11.140;2022-12-07T12:43:43;3.90;99.90
11961;DHT22;6040;49.358;11.140;2022-12-07T12:46:38;3.90;99.90
11961;DHT22;6040;49.358;11.140;2022-12-07T12:49:33;3.90;99.90
11961;DHT22;6040;49.358;11.140;2022-12-07T12:52:14;4.00;99.90
11961;DHT22;6040;49.358;11.140;2022-12-07T12:54:59;3.90;99.90
11961;DHT22;6040;49.358;11.140;2022-12-07T12:57:28;3.90;99.90
11961;DHT22;6040;49.358;11.140;2022-12-07T12:59:57;3.90;99.90
11961;DHT22;6040;49.358;11.140;2022-12-07T13:02:27;3.90;99.90
11961;DHT22;6040;49.358;11.140;2022-12-07T13:04:56;4.60;99.90
11961;DHT22;6040;49.358;11.140;2022-12-07T13:07:54;3.80;99.90
11961;DHT22;6040;49.358;11.140;2022-12-07T13:10:35;3.80;99.90
11961;DHT22;6040;49.358;11.140;2022-12-07T13:13:25;3.80;99.90
11961;DHT22;6040;49.358;11.140;2022-12-07T13:15:52;3.80;99.90
11961;DHT22;6040;49.358;11.140;2022-12-07T13:18:34;4.70;99.90
11961;DHT22;6040;49.358;11.140;2022-12-07T13:21:01;3.80;99.90
11961;DHT22;6040;49.358;11.140;2022-12-07T13:23:33;3.70;99.90
11961;DHT22;6040;49.358;11.140;2022-12-07T13:26:15;4.10;99.90
11961;DHT22;6040;49.358;11.140;2022-12-07T13:28:44;3.60;99.90
11961;DHT22;6040;49.358;11.140;2022-12-07T13:31:20;3.60;99.90
11961;DHT22;6040;49.358;11.140;2022-12-07T13:33:51;3.50;99.90
11961;DHT22;6040;49.358;11.140;2022-12-07T13:36:21;4.70;99.90
11961;DHT22;6040;49.358;11.140;2022-12-07T13:38:51;3.50;99.90
11961;DHT22;6040;49.358;11.140;2022-12-07T13:41:19;4.50;99.90
11961;DHT22;6040;49.358;11.140;2022-12-07T13:43:50;3.50;99.90
11961;DHT22;6040;49.358;11.140;2022-12-07T13:46:20;3.50;99.90
11961;DHT22;6040;49.358;11.140;2022-12-07T13:48:50;4.10;99.90
11961;DHT22;6040;49.358;11.140;2022-12-07T13:51:20;3.50;99.90
11961;DHT22;6040;49.358;11.140;2022-12-07T13:53:48;3.50;99.90
11961;DHT22;6040;49.358;11.140;2022-12-07T13:56:15;4.60;99.90
11961;DHT22;6040;49.358;11.140;2022-12-07T13:58:42;3.50;99.90
11961;DHT22;6040;49.358;11.140;2022-12-07T14:01:10;3.50;99.90
11961;DHT22;6040;49.358;11.140;2022-12-07T14:03:39;3.50;99.90
11961;DHT22;6040;49.358;11.140;2022-12-07T14:06:25;3.40;99.90
11961;DHT22;6040;49.358;11.140;2022-12-07T14:09:17;3.40;99.90
11961;DHT22;6040;49.358;11.140;2022-12-07T14:11:45;3.40;99.90
11961;DHT22;6040;49.358;11.140;2022-12-07T14:14:16;3.40;99.90
11961;DHT22;6040;49.358;11.140;2022-12-07T14:16:54;3.40;99.90
11961;DHT22;6040;49.358;11.140;2022-12-07T14:19:46;3.40;99.90
11961;DHT22;6040;49.358;11.140;2022-12-07T14:22:26;3.30;99.90
11961;DHT22;6040;49.358;11.140;2022-12-07T14:25:18;3.70;99.90
11961;DHT22;6040;49.358;11.140;2022-12-07T14:27:51;3.30;99.90
11961;DHT22;6040;49.358;11.140;2022-12-07T14:30:19;3.30;99.90
11961;DHT22;6040;49.358;11.140;2022-12-07T14:32:48;3.30;99.90
11961;DHT22;6040;49.358;11.140;2022-12-07T14:35:18;3.30;99.90
11961;DHT22;6040;49.358;11.140;2022-12-07T14:37:47;3.30;99.90
11961;DHT22;6040;49.358;11.140;2022-12-07T14:40:17;3.30;99.90
11961;DHT22;6040;49.358;11.140;2022-12-07T14:42:44;3.30;99.90
11961;DHT22;6040;49.358;11.140;2022-12-07T14:45:14;3.30;99.90
11961;DHT22;6040;49.358;11.140;2022-12-07T14:47:43;3.30;99.90
11961;DHT22;6040;49.358;11.140;2022-12-07T14:50:11;3.30;99.90
11961;DHT22;6040;49.358;11.140;2022-12-07T14:52:39;3.30;99.90
11961;DHT22;6040;49.358;11.140;2022-12-07T14:55:16;3.30;99.90
11961;DHT22;6040;49.358;11.140;2022-12-07T14:57:44;3.30;99.90
11961;DHT22;6040;49.358;11.140;2022-12-07T15:00:14;3.20;99.90
11961;DHT22;6040;49.358;11.140;2022-12-07T15:02:42;3.20;99.90
11961;DHT22;6040;49.358;11.140;2022-12-07T15:05:09;3.20;99.90
11961;DHT22;6040;49.358;11.140;2022-12-07T15:07:36;3.20;99.90
11961;DHT22;6040;49.358;11.140;2022-12-07T15:10:04;3.20;99.90
11961;DHT22;6040;49.358;11.140;2022-12-07T15:12:32;3.20;99.90
11961;DHT22;6040;49.358;11.140;2022-12-07T15:14:59;3.10;99.90
11961;DHT22;6040;49.358;11.140;2022-12-07T15:17:27;3.10;99.90
11961;DHT22;6040;49.358;11.140;2022-12-07T15:19:53;3.10;99.90
11961;DHT22;6040;49.358;11.140;2022-12-07T15:22:20;3.10;99.90
11961;DHT22;6040;49.358;11.140;2022-12-07T15:24:47;3.10;99.90
11961;DHT22;6040;49.358;11.140;2022-12-07T15:27:14;3.10;99.90
11961;DHT22;6040;49.358;11.140;2022-12-07T15:29:42;3.10;99.90
11961;DHT22;6040;49.358;11.140;2022-12-07T15:32:09;3.10;99.90
11961;DHT22;6040;49.358;11.140;2022-12-07T15:34:35;3.10;99.90
11961;DHT22;6040;49.358;11.140;2022-12-07T15:37:02;3.10;99.90
11961;DHT22;6040;49.358;11.140;2022-12-07T15:39:29;3.10;99.90
11961;DHT22;6040;49.358;11.140;2022-12-07T15:41:56;3.00;99.90
11961;DHT22;6040;49.358;11.140;2022-12-07T15:44:23;3.00;99.90
11961;DHT22;6040;49.358;11.140;2022-12-07T15:47:08;3.00;99.90
11961;DHT22;6040;49.358;11.140;2022-12-07T15:49:35;3.10;99.90
11961;DHT22;6040;49.358;11.140;2022-12-07T15:52:02;3.00;99.90
11961;DHT22;6040;49.358;11.140;2022-12-07T15:54:29;3.00;99.90
11961;DHT22;6040;49.358;11.140;2022-12-07T15:56:57;3.00;99.90
11961;DHT22;6040;49.358;11.140;2022-12-07T15:59:26;3.00;99.90
11961;DHT22;6040;49.358;11.140;2022-12-07T16:01:53;3.00;99.90
11961;DHT22;6040;49.358;11.140;2022-12-07T16:04:22;3.00;99.90
11961;DHT22;6040;49.358;11.140;2022-12-07T16:06:49;3.00;99.90
11961;DHT22;6040;49.358;11.140;2022-12-07T16:09:16;3.00;99.90
11961;DHT22;6040;49.358;11.140;2022-12-07T16:11:43;3.00;99.90
11961;DHT22;6040;49.358;11.140;2022-12-07T16:14:10;4.10;99.90